Map

Track Data

SID SEASON NUMBER BASIN SUBBASIN NAME ISO_TIME NATURE LAT LON WMO_WIND WMO_PRES WMO_AGENCY TRACK_TYPE DIST2LAND LANDFALL IFLAG USA_AGENCY USA_ATCF_ID USA_LAT USA_LON USA_RECORD USA_STATUS USA_WIND USA_PRES USA_SSHS USA_R34_NE USA_R34_SE USA_R34_SW USA_R34_NW USA_R50_NE USA_R50_SE USA_R50_SW USA_R50_NW USA_R64_NE USA_R64_SE USA_R64_SW USA_R64_NW USA_POCI USA_ROCI USA_RMW USA_EYE TOKYO_LAT TOKYO_LON TOKYO_GRADE TOKYO_WIND TOKYO_PRES TOKYO_R50_DIR TOKYO_R50_LONG TOKYO_R50_SHORT TOKYO_R30_DIR TOKYO_R30_LONG TOKYO_R30_SHORT TOKYO_LAND CMA_LAT CMA_LON CMA_CAT CMA_WIND CMA_PRES HKO_LAT HKO_LON HKO_CAT HKO_WIND HKO_PRES NEWDELHI_LAT NEWDELHI_LON NEWDELHI_GRADE NEWDELHI_WIND NEWDELHI_PRES NEWDELHI_CI NEWDELHI_DP NEWDELHI_POCI REUNION_LAT REUNION_LON REUNION_TYPE REUNION_WIND REUNION_PRES REUNION_TNUM REUNION_CI REUNION_RMW REUNION_R34_NE REUNION_R34_SE REUNION_R34_SW REUNION_R34_NW REUNION_R50_NE REUNION_R50_SE REUNION_R50_SW REUNION_R50_NW REUNION_R64_NE REUNION_R64_SE REUNION_R64_SW REUNION_R64_NW BOM_LAT BOM_LON BOM_TYPE BOM_WIND BOM_PRES BOM_TNUM BOM_CI BOM_RMW BOM_R34_NE BOM_R34_SE BOM_R34_SW BOM_R34_NW BOM_R50_NE BOM_R50_SE BOM_R50_SW BOM_R50_NW BOM_R64_NE BOM_R64_SE BOM_R64_SW BOM_R64_NW BOM_ROCI BOM_POCI BOM_EYE BOM_POS_METHOD BOM_PRES_METHOD NADI_LAT NADI_LON NADI_CAT NADI_WIND NADI_PRES WELLINGTON_LAT WELLINGTON_LON WELLINGTON_WIND WELLINGTON_PRES DS824_LAT DS824_LON DS824_STAGE DS824_WIND DS824_PRES TD9636_LAT TD9636_LON TD9636_STAGE TD9636_WIND TD9636_PRES TD9635_LAT TD9635_LON TD9635_WIND TD9635_PRES TD9635_ROCI NEUMANN_LAT NEUMANN_LON NEUMANN_CLASS NEUMANN_WIND NEUMANN_PRES MLC_LAT MLC_LON MLC_CLASS MLC_WIND MLC_PRES USA_GUST BOM_GUST BOM_GUST_PER REUNION_GUST REUNION_GUST_PER USA_SEAHGT USA_SEARAD_NE USA_SEARAD_SE USA_SEARAD_SW USA_SEARAD_NW STORM_SPEED STORM_DIR
1938217N14145 1938 33 WP MM NOT_NAMED 1938-08-04 21:00:00 NR 13.8000 145.000 main 1790 1790 __________O___ -1 13.8000 145.000 2 15 322
1938217N14145 1938 33 WP MM NOT_NAMED 1938-08-05 00:00:00 NR 14.3835 144.531 main 1862 1862 __________P___ -1 14.3835 144.531 2 15 322
1938217N14145 1938 33 WP MM NOT_NAMED 1938-08-05 03:00:00 NR 14.9433 144.069 main 1924 1924 __________P___ -1 14.9433 144.069 2 14 321
1938217N14145 1938 33 WP MM NOT_NAMED 1938-08-05 06:00:00 NR 15.4565 143.622 main 1988 1953 __________P___ -1 15.4565 143.622 2 13 319
1938217N14145 1938 33 WP MM NOT_NAMED 1938-08-05 09:00:00 NR 15.9000 143.200 main 1953 1917 __________O___ -1 15.9000 143.200 2 11 316
1938217N14145 1938 33 WP MM NOT_NAMED 1938-08-05 12:00:00 NR 16.2681 142.809 main 1920 1893 __________P___ -1 16.2681 142.809 2 10 315
1938217N14145 1938 33 WP MM NOT_NAMED 1938-08-05 15:00:00 NR 16.6221 142.439 main 1885 1865 __________P___ -1 16.6221 142.439 2 10 318
1938217N14145 1938 33 WP MM NOT_NAMED 1938-08-05 18:00:00 NR 17.0400 142.074 main 1865 1839 __________P___ -1 17.0400 142.074 2 12 324
1938217N14145 1938 33 WP MM NOT_NAMED 1938-08-05 21:00:00 NR 17.6000 141.700 main 1842 1769 __________O___ -1 17.6000 141.700 2 15 331
1938217N14145 1938 33 WP MM NOT_NAMED 1938-08-06 00:00:00 NR 18.3706 141.312 main 1760 1661 __________P___ -1 18.3706 141.312 2 19 336
1938217N14145 1938 33 WP MM NOT_NAMED 1938-08-06 03:00:00 NR 19.2900 140.907 main 1652 1534 __________P___ -1 19.2900 140.907 2 21 338
1938217N14145 1938 33 WP MM NOT_NAMED 1938-08-06 06:00:00 NR 20.3143 140.473 main 1534 1412 __________P___ -1 20.3143 140.473 2 23 338
1938217N14145 1938 33 WP MM NOT_NAMED 1938-08-06 09:00:00 NR 21.4000 140.000 main 1402 1269 __________O___ -1 21.4000 140.000 4 25 338
1938217N14145 1938 33 WP MM NOT_NAMED 1938-08-06 12:00:00 NR 22.5874 139.491 main 1258 1126 __________P___ -1 22.5874 139.491 4 26 338
1938217N14145 1938 33 WP MM NOT_NAMED 1938-08-06 15:00:00 NR 23.8062 138.937 main 1113 981 __________P___ -1 23.8062 138.937 4 26 336
1938217N14145 1938 33 WP MM NOT_NAMED 1938-08-06 18:00:00 NR 24.9469 138.338 main 979 856 __________P___ -1 24.9469 138.338 4 24 332
1938217N14145 1938 33 WP MM NOT_NAMED 1938-08-06 21:00:00 NR 25.9000 137.700 main 856 778 __________O___ -1 25.9000 137.700 4 19 324
1938217N14145 1938 33 WP MM NOT_NAMED 1938-08-07 00:00:00 NR 26.5108 137.093 main 778 704 __________P___ -1 26.5108 137.093 4 15 313
1938217N14145 1938 33 WP MM NOT_NAMED 1938-08-07 03:00:00 NR 26.9323 136.446 main 697 633 __________P___ -1 26.9323 136.446 4 14 302
1938217N14145 1938 33 WP MM NOT_NAMED 1938-08-07 06:00:00 NR 27.2629 135.727 main 618 548 __________P___ -1 27.2629 135.727 4 15 296
1938217N14145 1938 33 WP MM NOT_NAMED 1938-08-07 09:00:00 NR 27.6000 134.900 main 542 440 __________O___ -1 27.6000 134.900 4 19 298
1938217N14145 1938 33 WP MM NOT_NAMED 1938-08-07 12:00:00 NR 28.1646 133.846 main 425 326 __________P___ -1 28.1646 133.846 4 23 300
1938217N14145 1938 33 WP MM NOT_NAMED 1938-08-07 15:00:00 NR 28.7348 132.689 main 320 218 __________P___ -1 28.7348 132.689 4 23 298
1938217N14145 1938 33 WP MM NOT_NAMED 1938-08-07 18:00:00 NR 29.2368 131.536 main 215 156 __________P___ -1 29.2368 131.536 4 21 294
1938217N14145 1938 33 WP MM NOT_NAMED 1938-08-07 21:00:00 NR 29.6000 130.500 main 157 150 __________O___ -1 29.6000 130.500 4 16 288
1938217N14145 1938 33 WP MM NOT_NAMED 1938-08-08 00:00:00 NR 29.7499 129.753 main 168 163 __________P___ -1 29.7499 129.753 4 12 278
1938217N14145 1938 33 WP MM NOT_NAMED 1938-08-08 03:00:00 NR 29.7649 129.138 main 188 188 __________P___ -1 29.7649 129.138 4 10 267
1938217N14145 1938 33 WP MM NOT_NAMED 1938-08-08 06:00:00 NR 29.6978 128.580 main 226 226 __________P___ -1 29.6978 128.580 4 10 261
1938217N14145 1938 33 WP MM NOT_NAMED 1938-08-08 09:00:00 NR 29.6000 128.000 main 276 276 __________O___ -1 29.6000 128.000 4 12 260
1938217N14145 1938 33 WP MM NOT_NAMED 1938-08-08 12:00:00 NR 29.4912 127.230 main 344 344 __________P___ -1 29.4912 127.230 4 14 260
1938217N14145 1938 33 WP MM NOT_NAMED 1938-08-08 15:00:00 NR 29.3698 126.436 main 415 358 __________P___ -1 29.3698 126.436 4 14 261
1938217N14145 1938 33 WP MM NOT_NAMED 1938-08-08 18:00:00 NR 29.2882 125.674 main 358 290 __________P___ -1 29.2882 125.674 4 13 267
1938217N14145 1938 33 WP MM NOT_NAMED 1938-08-08 21:00:00 NR 29.3000 125.000 main 290 252 __________O___ -1 29.3000 125.000 4 10 279
1938217N14145 1938 33 WP MM NOT_NAMED 1938-08-09 00:00:00 NR 29.4463 124.534 main 243 217 __________P___ -1 29.4463 124.534 4 8 298
1938217N14145 1938 33 WP MM NOT_NAMED 1938-08-09 03:00:00 NR 29.6949 124.148 main 210 184 __________P___ -1 29.6949 124.148 4 9 311
1938217N14145 1938 33 WP MM NOT_NAMED 1938-08-09 06:00:00 NR 30.0213 123.763 main 184 144 __________P___ -1 30.0213 123.763 4 10 314
1938217N14145 1938 33 WP MM NOT_NAMED 1938-08-09 09:00:00 NR 30.4000 123.300 main 144 67 __________O___ -1 30.4000 123.300 7 13 308
1938217N14145 1938 33 WP MM NOT_NAMED 1938-08-09 12:00:00 NR 30.8047 122.602 main 67 14 __________P___ -1 30.8047 122.602 7 15 304
1938217N14145 1938 33 WP MM NOT_NAMED 1938-08-09 15:00:00 NR 31.2462 121.820 main 9 0 __________P___ -1 31.2462 121.820 7 16 303
1938217N14145 1938 33 WP MM NOT_NAMED 1938-08-09 18:00:00 NR 31.6892 121.027 main 0 0 __________P___ -1 31.6892 121.027 7 16 303
1938217N14145 1938 33 WP MM NOT_NAMED 1938-08-09 21:00:00 NR 32.1000 120.300 main 0 0 __________O___ -1 32.1000 120.300 7 13 305
1938217N14145 1938 33 WP MM NOT_NAMED 1938-08-10 00:00:00 NR 32.4374 119.747 main 0 0 __________P___ -1 32.4374 119.747 7 11 306
1938217N14145 1938 33 WP MM NOT_NAMED 1938-08-10 03:00:00 NR 32.7418 119.271 main 0 0 __________P___ -1 32.7418 119.271 7 10 307
1938217N14145 1938 33 WP MM NOT_NAMED 1938-08-10 06:00:00 NR 33.0254 118.835 main 0 0 __________P___ -1 33.0254 118.835 7 9 307
1938217N14145 1938 33 WP MM NOT_NAMED 1938-08-10 09:00:00 NR 33.3000 118.400 main 0 0 __________O___ -1 33.3000 118.400 7 10 303
1938217N14145 1938 33 WP MM NOT_NAMED 1938-08-10 12:00:00 NR 33.5835 117.799 main 0 0 __________P___ -1 33.5835 117.799 7 11 299
1938217N14145 1938 33 WP MM NOT_NAMED 1938-08-10 15:00:00 NR 33.8594 117.208 main 0 0 __________P___ -1 33.8594 117.208 7 11 301
1938217N14145 1938 33 WP MM NOT_NAMED 1938-08-10 18:00:00 NR 34.1302 116.712 main 0 0 __________P___ -1 34.1302 116.712 7 9 309
1938217N14145 1938 33 WP MM NOT_NAMED 1938-08-10 21:00:00 NR 34.4000 116.400 main 0 0 __________O___ -1 34.4000 116.400 7 6 332
1938217N14145 1938 33 WP MM NOT_NAMED 1938-08-11 00:00:00 NR 34.6656 116.359 main 0 0 __________P___ -1 34.6656 116.359 7 5 9
1938217N14145 1938 33 WP MM NOT_NAMED 1938-08-11 03:00:00 NR 34.9338 116.508 main 0 0 __________P___ -1 34.9338 116.508 7 6 32
1938217N14145 1938 33 WP MM NOT_NAMED 1938-08-11 06:00:00 NR 35.2100 116.778 main 0 0 __________P___ -1 35.2100 116.778 7 7 41
1938217N14145 1938 33 WP MM NOT_NAMED 1938-08-11 09:00:00 NR 35.5000 117.100 main 0 0 __________O___ -1 35.5000 117.100 7 7 38
1938217N14145 1938 33 WP MM NOT_NAMED 1938-08-11 12:00:00 NR 35.7940 117.337 main 0 0 __________P___ -1 35.7940 117.337 7 7 34
1938217N14145 1938 33 WP MM NOT_NAMED 1938-08-11 15:00:00 NR 36.1043 117.612 main 0 0 __________P___ -1 36.1043 117.612 7 8 37
1938217N14145 1938 33 WP MM NOT_NAMED 1938-08-11 18:00:00 NR 36.4375 117.931 main 0 0 __________P___ -1 36.4375 117.931 7 9 39
1938217N14145 1938 33 WP MM NOT_NAMED 1938-08-11 21:00:00 NR 36.8000 118.300 main 0 0 __________O___ -1 36.8000 118.300 7 10 41
1938217N14145 1938 33 WP MM NOT_NAMED 1938-08-12 00:00:00 NR 37.1635 118.707 main 0 0 __________P___ -1 37.1635 118.707 7 10 42
1938217N14145 1938 33 WP MM NOT_NAMED 1938-08-12 03:00:00 NR 37.5595 119.164 main 14 14 __________P___ -1 37.5595 119.164 7 11 42
1938217N14145 1938 33 WP MM NOT_NAMED 1938-08-12 06:00:00 NR 38.0007 119.664 main 55 55 __________P___ -1 38.0007 119.664 7 12 41
1938217N14145 1938 33 WP MM NOT_NAMED 1938-08-12 09:00:00 NR 38.5000 120.200 main 81 28 __________O___ -1 38.5000 120.200 7 14 40
1938217N14145 1938 33 WP MM NOT_NAMED 1938-08-12 12:00:00 NR 39.0480 120.788 main 28 8 __________P___ -1 39.0480 120.788 7 15 39
1938217N14145 1938 33 WP MM NOT_NAMED 1938-08-12 15:00:00 NR 39.6539 121.407 main 14 0 __________P___ -1 39.6539 121.407 7 16 37
1938217N14145 1938 33 WP MM NOT_NAMED 1938-08-12 18:00:00 NR 40.3075 122.023 main 8 0 __________P___ -1 40.3075 122.023 7 16 34
1938217N14145 1938 33 WP MM NOT_NAMED 1938-08-12 21:00:00 NR 41.0000 122.600 main 0 0 __________O___ -1 41.0000 122.600 7 17 33
1938217N14145 1938 33 WP MM NOT_NAMED 1938-08-13 00:00:00 NR 41.7141 123.216 main 0 0 __________P___ -1 41.7141 123.216 7 17 31
1938217N14145 1938 33 WP MM NOT_NAMED 1938-08-13 03:00:00 NR 42.4625 123.772 main 0 0 __________P___ -1 42.4625 123.772 7 17 25
1938217N14145 1938 33 WP MM NOT_NAMED 1938-08-13 06:00:00 NR 43.2295 124.194 main 0 0 __________P___ -1 43.2295 124.194 7 16 17
1938217N14145 1938 33 WP MM NOT_NAMED 1938-08-13 09:00:00 NR 44.0000 124.400 main 0 0 __________O___ -1 44.0000 124.400 7 15 3
1938217N14145 1938 33 WP MM NOT_NAMED 1938-08-13 12:00:00 NR 44.7620 124.331 main 0 0 __________P___ -1 44.7620 124.331 7 15 350
1938217N14145 1938 33 WP MM NOT_NAMED 1938-08-13 15:00:00 NR 45.5149 124.028 main 0 0 __________P___ -1 45.5149 124.028 7 16 340
1938217N14145 1938 33 WP MM NOT_NAMED 1938-08-13 18:00:00 NR 46.2604 123.560 main 0 0 __________P___ -1 46.2604 123.560 7 16 334
1938217N14145 1938 33 WP MM NOT_NAMED 1938-08-13 21:00:00 NR 47.0000 123.000 main 0 __________O___ -1 47.0000 123.000 7 17 333

Digital Typhoon Data and Search

About IBTrACS Database

This database is a web-friendly format of International Best Track Archive for Climate Stewardship (IBTrACS), a global best track data archive curated by NOAA dating back to 1842.

Updated: 2021-10-21